createdAt,value
2023-01-20T00:01:24.665Z,1.00
2023-01-20T00:03:53.614Z,1.10
2023-01-20T00:06:22.496Z,1.10
2023-01-20T00:08:53.686Z,1.10
2023-01-20T00:11:23.271Z,1.10
2023-01-20T00:13:54.802Z,1.10
2023-01-20T00:16:24.231Z,1.00
2023-01-20T00:18:53.120Z,1.00
2023-01-20T00:21:22.902Z,1.00
2023-01-20T00:23:52.877Z,2.40
2023-01-20T00:26:22.107Z,1.00
2023-01-20T00:28:51.416Z,0.90
2023-01-20T00:31:21.205Z,0.90
2023-01-20T00:33:51.476Z,0.90
2023-01-20T00:36:21.175Z,1.00
2023-01-20T00:38:50.528Z,1.00
2023-01-20T00:41:20.673Z,0.90
2023-01-20T00:43:50.444Z,0.90
2023-01-20T00:46:20.233Z,1.00
2023-01-20T00:48:48.856Z,1.00
2023-01-20T00:51:17.692Z,1.00
2023-01-20T00:53:46.334Z,1.00
2023-01-20T00:56:14.979Z,1.10
2023-01-20T00:58:45.324Z,1.10
2023-01-20T01:01:15.247Z,1.20
2023-01-20T01:03:45.357Z,1.20
2023-01-20T01:06:15.055Z,1.20
2023-01-20T01:08:43.970Z,1.20
2023-01-20T01:11:13.074Z,1.20
2023-01-20T01:13:41.921Z,1.20
2023-01-20T01:16:16.037Z,1.20
2023-01-20T01:18:44.810Z,1.20
2023-01-20T01:21:14.841Z,1.20
2023-01-20T01:23:43.430Z,1.20
2023-01-20T01:26:12.100Z,1.20
2023-01-20T01:28:41.644Z,1.20
2023-01-20T01:31:10.686Z,1.10
2023-01-20T01:33:40.921Z,1.20
2023-01-20T01:36:13.266Z,1.10
2023-01-20T01:38:43.071Z,1.10
2023-01-20T01:41:12.632Z,1.00
2023-01-20T01:43:41.879Z,1.00
2023-01-20T01:46:10.665Z,1.00
2023-01-20T01:48:42.077Z,1.00
2023-01-20T01:51:13.717Z,1.00
2023-01-20T01:53:46.233Z,0.90
2023-01-20T01:56:16.136Z,0.90
2023-01-20T01:58:46.329Z,0.90
2023-01-20T02:01:15.087Z,0.90
2023-01-20T02:03:55.719Z,0.90
2023-01-20T02:06:25.730Z,0.90
2023-01-20T02:08:54.434Z,0.90
2023-01-20T02:11:22.931Z,1.00
2023-01-20T02:13:51.605Z,0.90
2023-01-20T02:16:25.281Z,0.90
2023-01-20T02:19:06.685Z,0.80
2023-01-20T02:21:51.032Z,0.90
2023-01-20T02:24:38.720Z,0.90
2023-01-20T02:27:09.843Z,0.90
2023-01-20T02:29:53.272Z,0.90
2023-01-20T02:32:27.171Z,0.90
2023-01-20T02:34:59.193Z,0.90
2023-01-20T02:37:28.997Z,0.90
2023-01-20T02:40:01.837Z,0.90
2023-01-20T02:42:35.641Z,0.90
2023-01-20T02:45:07.500Z,0.90
2023-01-20T02:47:39.901Z,0.90
2023-01-20T02:50:10.973Z,0.90
2023-01-20T02:52:41.456Z,1.00
2023-01-20T02:55:13.017Z,1.00
2023-01-20T02:57:44.541Z,0.90
2023-01-20T03:00:15.962Z,0.90
2023-01-20T03:02:47.197Z,0.90
2023-01-20T03:05:18.436Z,1.00
2023-01-20T03:07:47.252Z,0.90
2023-01-20T03:10:17.295Z,1.00
2023-01-20T03:12:48.162Z,1.00
2023-01-20T03:15:17.276Z,0.90
2023-01-20T03:17:47.037Z,0.90
2023-01-20T03:20:15.653Z,0.90
2023-01-20T03:22:44.502Z,0.90
2023-01-20T03:25:14.711Z,0.90
2023-01-20T03:27:44.542Z,0.90
2023-01-20T03:30:14.077Z,1.80
2023-01-20T03:32:44.068Z,0.90
2023-01-20T03:35:14.507Z,0.90
2023-01-20T03:37:43.662Z,1.00
2023-01-20T03:40:13.353Z,1.00
2023-01-20T03:42:45.231Z,1.00
2023-01-20T03:45:16.714Z,1.00
2023-01-20T03:47:51.043Z,1.00
2023-01-20T03:50:27.376Z,1.10
2023-01-20T03:52:58.705Z,1.00
2023-01-20T03:55:31.409Z,1.10
2023-01-20T03:58:03.550Z,1.00
2023-01-20T04:00:33.729Z,1.10
2023-01-20T04:03:05.533Z,1.00
2023-01-20T04:05:36.075Z,1.00
2023-01-20T04:08:06.470Z,1.10
2023-01-20T04:10:36.575Z,1.10
2023-01-20T04:13:05.539Z,1.10
2023-01-20T04:15:37.220Z,1.10
2023-01-20T04:18:12.572Z,1.10
2023-01-20T04:23:13.287Z,1.10
2023-01-20T04:25:41.999Z,1.20
2023-01-20T04:28:10.528Z,1.20
2023-01-20T04:30:39.148Z,1.10
2023-01-20T04:35:36.367Z,1.10
2023-01-20T04:38:04.886Z,1.10
2023-01-20T04:40:34.917Z,1.20
2023-01-20T04:43:04.005Z,1.10
2023-01-20T04:45:32.567Z,1.10
2023-01-20T04:48:02.092Z,0.90
2023-01-20T04:50:30.612Z,1.00
2023-01-20T04:53:00.786Z,0.50
2023-01-20T04:55:29.619Z,0.90
2023-01-20T04:57:59.528Z,1.00
2023-01-20T05:00:28.702Z,1.00
2023-01-20T05:02:58.977Z,0.70
2023-01-20T05:05:27.714Z,1.10
2023-01-20T05:07:57.151Z,1.20
2023-01-20T05:10:25.817Z,1.10
2023-01-20T05:12:54.390Z,1.10
2023-01-20T05:15:24.305Z,1.10
2023-01-20T05:17:52.886Z,1.10
2023-01-20T05:20:21.527Z,1.40
2023-01-20T05:22:50.448Z,1.00
2023-01-20T05:25:19.145Z,1.00
2023-01-20T05:27:47.688Z,1.10
2023-01-20T05:30:16.516Z,0.90
2023-01-20T05:32:47.162Z,1.10
2023-01-20T05:35:16.220Z,0.90
2023-01-20T05:37:45.178Z,0.90
2023-01-20T05:40:14.261Z,1.30
2023-01-20T05:45:12.009Z,0.90
2023-01-20T05:47:40.598Z,1.00
2023-01-20T05:50:10.951Z,1.00
2023-01-20T05:55:08.455Z,1.00
2023-01-20T05:57:37.026Z,0.80
2023-01-20T06:00:07.954Z,1.00
2023-01-20T06:05:06.221Z,1.00
2023-01-20T06:07:36.231Z,1.00
2023-01-20T06:10:05.060Z,1.00
2023-01-20T06:12:33.580Z,1.10
2023-01-20T06:15:05.070Z,1.20
2023-01-20T06:17:34.897Z,1.20
2023-01-20T06:22:34.049Z,1.10
2023-01-20T06:25:06.091Z,1.30
2023-01-20T06:27:34.820Z,1.10
2023-01-20T06:32:37.249Z,1.00
2023-01-20T06:35:05.994Z,1.10
2023-01-20T06:37:34.554Z,1.00
2023-01-20T06:40:03.272Z,1.00
2023-01-20T06:42:33.387Z,1.10
2023-01-20T06:45:01.983Z,1.10
2023-01-20T06:47:30.494Z,1.10
2023-01-20T06:49:59.164Z,1.10
2023-01-20T06:52:27.791Z,1.10
2023-01-20T06:54:56.458Z,1.10
2023-01-20T06:57:25.072Z,1.10
2023-01-20T06:59:55.503Z,1.20
2023-01-20T07:02:24.343Z,1.20
2023-01-20T07:04:53.677Z,1.20
2023-01-20T07:07:22.240Z,1.20
2023-01-20T07:09:52.033Z,0.70
2023-01-20T07:12:20.611Z,1.60
2023-01-20T07:14:49.149Z,1.30
2023-01-20T07:17:18.998Z,1.30
2023-01-20T07:19:47.696Z,0.90
2023-01-20T07:22:17.244Z,1.10
2023-01-20T07:24:46.117Z,0.90
2023-01-20T07:27:15.135Z,1.40
2023-01-20T07:29:45.700Z,1.30
2023-01-20T07:32:15.246Z,1.30
2023-01-20T07:34:45.130Z,1.00
2023-01-20T07:37:13.773Z,1.20
2023-01-20T07:39:42.326Z,1.30
2023-01-20T07:42:11.021Z,1.20
2023-01-20T07:44:39.607Z,1.30
2023-01-20T07:47:09.217Z,1.40
2023-01-20T07:49:37.697Z,1.40
2023-01-20T07:52:10.296Z,1.30
2023-01-20T07:54:41.189Z,1.50
2023-01-20T07:57:09.987Z,1.50
2023-01-20T07:59:38.470Z,1.60
2023-01-20T08:02:07.222Z,1.70
2023-01-20T08:04:36.892Z,1.80
2023-01-20T08:07:05.614Z,1.70
2023-01-20T08:09:34.088Z,1.70
2023-01-20T08:12:04.061Z,1.80
2023-01-20T08:14:32.869Z,1.90
2023-01-20T08:17:01.643Z,2.00
2023-01-20T08:19:30.672Z,1.80
2023-01-20T08:21:59.300Z,1.70
2023-01-20T08:24:27.968Z,1.80
2023-01-20T08:26:56.819Z,1.80
2023-01-20T08:29:26.977Z,1.70
2023-01-20T08:31:55.670Z,1.60
2023-01-20T08:34:24.257Z,1.60
2023-01-20T08:36:54.230Z,1.70
2023-01-20T08:39:23.056Z,1.60
2023-01-20T08:41:51.983Z,1.60
2023-01-20T08:44:21.650Z,1.60
2023-01-20T08:46:54.760Z,1.60
2023-01-20T08:49:23.677Z,1.60
2023-01-20T08:51:52.315Z,1.70
2023-01-20T08:54:22.104Z,1.70
2023-01-20T08:56:51.175Z,1.70
2023-01-20T08:59:20.153Z,1.80
2023-01-20T09:01:48.620Z,1.90
2023-01-20T09:04:18.509Z,1.90
2023-01-20T09:06:48.727Z,1.80
2023-01-20T09:09:18.857Z,1.80
2023-01-20T09:11:51.313Z,1.80
2023-01-20T09:14:20.536Z,1.80
2023-01-20T09:16:49.674Z,1.70
2023-01-20T09:19:19.649Z,1.70
2023-01-20T09:21:48.298Z,1.60
2023-01-20T09:24:16.915Z,2.10
2023-01-20T09:26:46.139Z,1.90
2023-01-20T09:29:15.702Z,2.30
2023-01-20T09:31:45.440Z,1.80
2023-01-20T09:34:19.700Z,2.20
2023-01-20T09:36:52.522Z,2.50
2023-01-20T09:39:38.698Z,2.20
2023-01-20T09:42:34.313Z,2.30
2023-01-20T09:45:10.723Z,2.60
2023-01-20T09:47:41.702Z,2.30
2023-01-20T09:50:35.917Z,2.60
2023-01-20T09:53:15.611Z,2.30
2023-01-20T09:58:16.738Z,2.20
2023-01-20T10:00:48.056Z,2.20
2023-01-20T10:03:19.690Z,2.20
2023-01-20T10:05:50.812Z,2.30
2023-01-20T10:08:24.215Z,2.40
2023-01-20T10:10:54.192Z,2.40
2023-01-20T10:13:24.451Z,2.30
2023-01-20T10:15:54.823Z,2.40
2023-01-20T10:18:25.529Z,2.40
2023-01-20T10:20:56.685Z,2.50
2023-01-20T10:23:29.818Z,2.60
2023-01-20T10:26:00.613Z,2.70
2023-01-20T10:28:30.164Z,2.80
2023-01-20T10:31:01.980Z,2.80
2023-01-20T10:33:33.229Z,2.80
2023-01-20T10:36:01.999Z,2.70
2023-01-20T10:38:35.419Z,2.80
2023-01-20T10:41:04.732Z,2.80
2023-01-20T10:43:33.391Z,2.80
2023-01-20T10:46:17.294Z,2.70
2023-01-20T10:48:56.162Z,2.70
2023-01-20T10:51:27.282Z,2.70
2023-01-20T10:54:02.375Z,2.60
2023-01-20T10:56:44.108Z,2.60
2023-01-20T10:59:17.599Z,2.50
2023-01-20T11:01:49.052Z,2.40
2023-01-20T11:04:21.337Z,2.40
2023-01-20T11:06:51.944Z,2.40
2023-01-20T11:09:28.491Z,2.30
2023-01-20T11:11:57.617Z,2.40
2023-01-20T11:14:26.363Z,2.40
2023-01-20T11:16:57.636Z,2.40
2023-01-20T11:21:55.011Z,2.30
2023-01-20T11:24:36.369Z,2.30
2023-01-20T11:27:05.942Z,2.30
2023-01-20T11:32:04.220Z,2.30
2023-01-20T11:34:34.036Z,2.40
2023-01-20T11:37:17.094Z,2.40
2023-01-20T11:39:58.098Z,2.40
2023-01-20T11:42:29.185Z,2.40
2023-01-20T11:45:15.307Z,2.50
2023-01-20T11:47:59.666Z,2.60
2023-01-20T11:50:36.144Z,2.50
2023-01-20T11:58:04.962Z,2.50
2023-01-20T12:00:38.605Z,2.60
2023-01-20T12:03:18.264Z,2.40
2023-01-20T12:05:49.999Z,2.40
2023-01-20T12:08:21.346Z,2.20
2023-01-20T12:10:50.950Z,2.20
2023-01-20T12:13:22.151Z,2.30
2023-01-20T12:15:54.751Z,2.00
2023-01-20T12:18:28.433Z,2.10
2023-01-20T12:23:33.775Z,2.30
2023-01-20T12:26:04.008Z,2.30
2023-01-20T12:28:36.318Z,2.30
2023-01-20T12:31:05.956Z,2.20
2023-01-20T12:33:36.432Z,2.10
2023-01-20T12:36:20.043Z,2.10
2023-01-20T12:38:54.443Z,2.20
2023-01-20T12:41:30.572Z,2.20
2023-01-20T12:44:03.314Z,2.30
2023-01-20T12:46:37.147Z,2.40
2023-01-20T12:49:19.678Z,2.50
2023-01-20T12:51:52.922Z,2.50
2023-01-20T12:54:47.514Z,2.50
2023-01-20T12:57:22.470Z,2.50
2023-01-20T12:59:57.193Z,2.50
2023-01-20T13:02:41.863Z,2.50
2023-01-20T13:05:27.309Z,2.50
2023-01-20T13:08:03.482Z,2.50
2023-01-20T13:10:51.409Z,2.40
2023-01-20T13:13:26.071Z,2.30
2023-01-20T13:15:58.751Z,2.40
2023-01-20T13:18:32.122Z,2.40
2023-01-20T13:21:00.750Z,2.30
2023-01-20T13:23:30.481Z,2.30
2023-01-20T13:26:01.476Z,2.20
2023-01-20T13:28:31.373Z,2.20
2023-01-20T13:31:03.284Z,2.20
2023-01-20T13:33:34.145Z,2.30
2023-01-20T13:36:14.136Z,2.40
2023-01-20T13:38:43.292Z,2.10
2023-01-20T13:41:12.978Z,2.10
2023-01-20T13:43:49.192Z,2.20
2023-01-20T13:46:36.531Z,2.10
2023-01-20T13:49:15.098Z,2.10
2023-01-20T13:51:46.060Z,2.10
2023-01-20T13:54:35.570Z,2.30
2023-01-20T13:57:24.169Z,3.10
2023-01-20T13:59:52.911Z,2.20
2023-01-20T14:02:23.326Z,2.20
2023-01-20T14:04:53.470Z,1.90
2023-01-20T14:07:25.709Z,2.10
2023-01-20T14:09:54.582Z,2.10
2023-01-20T14:12:23.364Z,2.10
2023-01-20T14:14:52.889Z,2.00
2023-01-20T14:17:23.335Z,1.90
2023-01-20T14:19:54.014Z,1.80
2023-01-20T14:24:52.700Z,1.80
2023-01-20T14:32:22.359Z,1.70
2023-01-20T14:34:54.365Z,1.70
2023-01-20T14:37:26.324Z,1.70
2023-01-20T14:39:56.955Z,1.70
2023-01-20T14:42:26.507Z,1.70
2023-01-20T14:47:25.795Z,1.60
2023-01-20T14:49:56.159Z,1.60
2023-01-20T14:52:28.268Z,1.70
2023-01-20T14:54:57.112Z,1.60
2023-01-20T14:57:27.237Z,1.70
2023-01-20T15:00:12.290Z,1.60
2023-01-20T15:02:44.558Z,1.60
2023-01-20T15:05:28.008Z,1.60
2023-01-20T15:08:06.464Z,1.60
2023-01-20T15:10:35.237Z,1.60
2023-01-20T15:13:03.865Z,1.60
2023-01-20T15:15:33.110Z,1.60
2023-01-20T15:18:21.504Z,1.60
2023-01-20T15:21:00.931Z,1.60
2023-01-20T15:23:38.258Z,1.60
2023-01-20T15:26:10.815Z,1.60
2023-01-20T15:28:43.674Z,1.60
2023-01-20T15:31:13.702Z,1.60
2023-01-20T15:33:42.405Z,1.60
2023-01-20T15:36:23.724Z,1.70
2023-01-20T15:38:52.372Z,1.70
2023-01-20T15:41:21.051Z,1.70
2023-01-20T15:43:52.627Z,1.70
2023-01-20T15:46:21.383Z,1.70
2023-01-20T15:48:51.029Z,1.70
2023-01-20T15:51:21.042Z,1.70
2023-01-20T15:53:53.177Z,1.70
2023-01-20T15:56:23.779Z,1.60
2023-01-20T15:58:53.577Z,1.60
2023-01-20T16:01:24.146Z,1.60
2023-01-20T16:03:55.021Z,1.70
2023-01-20T16:06:26.908Z,1.70
2023-01-20T16:08:56.855Z,1.70
2023-01-20T16:11:26.544Z,1.70
2023-01-20T16:13:55.098Z,1.70
2023-01-20T16:16:24.638Z,1.60
2023-01-20T16:18:55.514Z,1.50
2023-01-20T16:21:24.216Z,1.60
2023-01-20T16:23:52.734Z,1.40
2023-01-20T16:26:24.404Z,1.30
2023-01-20T16:28:53.579Z,1.30
2023-01-20T16:31:23.591Z,1.10
2023-01-20T16:33:54.131Z,1.10
2023-01-20T16:36:23.630Z,1.10
2023-01-20T16:38:52.966Z,0.90
2023-01-20T16:41:25.673Z,1.00
2023-01-20T16:43:55.825Z,0.90
2023-01-20T16:46:25.358Z,0.90
2023-01-20T16:49:01.889Z,0.90
2023-01-20T16:51:32.717Z,0.80
2023-01-20T16:54:05.167Z,0.80
2023-01-20T16:56:36.191Z,0.90
2023-01-20T16:59:07.393Z,0.90
2023-01-20T17:01:37.036Z,0.90
2023-01-20T17:04:05.925Z,0.90
2023-01-20T17:06:36.531Z,0.90
2023-01-20T17:09:06.493Z,0.90
2023-01-20T17:11:38.223Z,1.00
2023-01-20T17:14:07.653Z,0.90
2023-01-20T17:16:37.328Z,1.00
2023-01-20T17:19:06.766Z,1.00
2023-01-20T17:21:38.086Z,1.00
2023-01-20T17:24:07.270Z,0.90
2023-01-20T17:26:38.653Z,1.00
2023-01-20T17:29:08.698Z,0.90
2023-01-20T17:31:40.430Z,1.00
2023-01-20T17:34:10.746Z,1.00
2023-01-20T17:36:39.416Z,1.00
2023-01-20T17:39:11.434Z,1.00
2023-01-20T17:41:42.441Z,1.00
2023-01-20T17:44:11.448Z,1.00
2023-01-20T17:46:41.249Z,1.00
2023-01-20T17:49:10.089Z,1.00
2023-01-20T17:51:38.865Z,1.00
2023-01-20T17:54:07.539Z,1.10
2023-01-20T17:56:36.193Z,1.20
2023-01-20T17:59:07.339Z,1.20
2023-01-20T18:01:36.016Z,1.10
2023-01-20T18:04:10.281Z,1.20
2023-01-20T18:06:39.171Z,1.10
2023-01-20T18:09:09.323Z,1.20
2023-01-20T18:11:38.267Z,1.20
2023-01-20T18:14:08.724Z,1.20
2023-01-20T18:16:38.371Z,1.30
2023-01-20T18:19:08.066Z,1.20
2023-01-20T18:21:38.288Z,1.20
2023-01-20T18:24:10.073Z,1.20
2023-01-20T18:26:39.799Z,1.20
2023-01-20T18:29:11.271Z,1.20
2023-01-20T18:31:41.757Z,1.10
2023-01-20T18:34:12.268Z,1.20
2023-01-20T18:36:42.128Z,1.20
2023-01-20T18:39:14.764Z,1.30
2023-01-20T18:41:43.698Z,1.30
2023-01-20T18:44:12.637Z,1.30
2023-01-20T18:46:42.914Z,1.30
2023-01-20T18:49:13.196Z,1.20
2023-01-20T18:51:43.012Z,1.30
2023-01-20T18:54:13.043Z,1.30
2023-01-20T18:56:41.812Z,1.30
2023-01-20T18:59:11.628Z,1.30
2023-01-20T19:01:41.087Z,1.30
2023-01-20T19:04:12.626Z,1.40
2023-01-20T19:06:42.013Z,1.40
2023-01-20T19:09:11.264Z,1.40
2023-01-20T19:11:41.121Z,1.40
2023-01-20T19:14:11.996Z,1.40
2023-01-20T19:16:45.203Z,1.30
2023-01-20T19:19:16.244Z,1.40
2023-01-20T19:21:44.969Z,1.40
2023-01-20T19:24:17.851Z,1.40
2023-01-20T19:26:46.610Z,1.40
2023-01-20T19:29:17.410Z,1.40
2023-01-20T19:31:47.205Z,1.40
2023-01-20T19:34:18.232Z,1.50
2023-01-20T19:36:47.053Z,1.50
2023-01-20T19:39:16.202Z,1.50
2023-01-20T19:41:44.963Z,1.50
2023-01-20T19:44:13.950Z,1.50
2023-01-20T19:46:42.701Z,1.50
2023-01-20T19:49:11.645Z,1.50
2023-01-20T19:51:41.916Z,1.50
2023-01-20T19:54:12.236Z,1.40
2023-01-20T19:56:41.513Z,1.50
2023-01-20T19:59:12.481Z,1.40
2023-01-20T20:01:41.368Z,1.40
2023-01-20T20:04:12.842Z,1.40
2023-01-20T20:06:47.922Z,1.40
2023-01-20T20:09:19.151Z,1.40
2023-01-20T20:11:48.018Z,1.50
2023-01-20T20:14:18.009Z,1.40
2023-01-20T20:16:46.743Z,1.50
2023-01-20T20:19:16.281Z,1.50
2023-01-20T20:21:46.674Z,1.50
2023-01-20T20:24:16.428Z,1.50
2023-01-20T20:26:52.360Z,1.40
2023-01-20T20:29:25.218Z,1.40
2023-01-20T20:31:54.015Z,1.40
2023-01-20T20:34:22.671Z,1.40
2023-01-20T20:36:54.695Z,1.50
2023-01-20T20:39:23.709Z,1.40
2023-01-20T20:41:52.423Z,1.50
2023-01-20T20:44:21.987Z,1.40
2023-01-20T20:46:50.773Z,1.40
2023-01-20T20:49:20.427Z,1.40
2023-01-20T20:51:49.282Z,1.40
2023-01-20T20:54:19.629Z,1.40
2023-01-20T20:59:26.355Z,1.30
2023-01-20T21:01:55.360Z,1.40
2023-01-20T21:04:24.044Z,1.30
2023-01-20T21:06:52.547Z,1.40
2023-01-20T21:09:22.523Z,1.40
2023-01-20T21:14:22.268Z,1.30
2023-01-20T21:16:50.974Z,1.30
2023-01-20T21:19:19.643Z,1.30
2023-01-20T21:21:48.161Z,1.20
2023-01-20T21:24:16.816Z,1.20
2023-01-20T21:26:52.875Z,1.20
2023-01-20T21:29:27.544Z,1.20
2023-01-20T21:31:58.514Z,1.20
2023-01-20T21:34:27.293Z,1.20
2023-01-20T21:39:27.710Z,1.20
2023-01-20T21:41:59.031Z,1.20
2023-01-20T21:44:29.593Z,1.20
2023-01-20T21:46:58.605Z,1.20
2023-01-20T21:49:45.746Z,1.20
2023-01-20T21:52:35.084Z,1.20
2023-01-20T21:55:04.833Z,1.20
2023-01-20T21:57:35.870Z,1.30
2023-01-20T22:07:38.612Z,1.20
2023-01-20T22:10:07.982Z,1.30
2023-01-20T22:12:37.979Z,1.20
2023-01-20T22:15:07.047Z,1.20
2023-01-20T22:17:35.760Z,1.30
2023-01-20T23:04:52.497Z,1.10
2023-01-20T23:07:21.114Z,1.00
2023-01-20T23:12:18.653Z,0.90
2023-01-20T23:17:28.885Z,1.00
2023-01-20T23:19:58.974Z,0.90
2023-01-20T23:22:27.621Z,0.90
2023-01-20T23:24:56.072Z,0.90
2023-01-20T23:27:24.763Z,0.90
2023-01-20T23:29:55.891Z,0.90
2023-01-20T23:32:24.568Z,0.80
2023-01-20T23:34:53.176Z,0.90
2023-01-20T23:37:23.063Z,0.90
2023-01-20T23:39:53.086Z,0.90
2023-01-20T23:42:22.196Z,0.80
2023-01-20T23:44:51.171Z,0.90
2023-01-20T23:47:19.823Z,0.90
2023-01-20T23:49:48.374Z,0.90
2023-01-20T23:52:16.956Z,0.90
2023-01-20T23:54:46.793Z,0.80
2023-01-20T23:57:15.966Z,0.90
2023-01-20T23:59:44.766Z,0.80
